sensor_id;sensor_type;location;lat;lon;timestamp;temperature;humidity
15203;DHT22;7702;51.046;5.184;2023-11-19T00:02:07;13.30;99.90
15203;DHT22;7702;51.046;5.184;2023-11-19T00:04:36;13.30;99.90
15203;DHT22;7702;51.046;5.184;2023-11-19T00:07:03;13.30;99.90
15203;DHT22;7702;51.046;5.184;2023-11-19T00:09:30;13.30;99.90
15203;DHT22;7702;51.046;5.184;2023-11-19T00:11:57;13.40;99.90
15203;DHT22;7702;51.046;5.184;2023-11-19T00:14:23;13.30;99.90
15203;DHT22;7702;51.046;5.184;2023-11-19T00:16:49;13.30;99.90
15203;DHT22;7702;51.046;5.184;2023-11-19T00:19:16;13.40;99.90
15203;DHT22;7702;51.046;5.184;2023-11-19T00:21:42;13.40;99.90
15203;DHT22;7702;51.046;5.184;2023-11-19T00:24:08;13.40;99.90
15203;DHT22;7702;51.046;5.184;2023-11-19T00:26:34;13.40;99.90
15203;DHT22;7702;51.046;5.184;2023-11-19T00:29:00;13.40;99.90
15203;DHT22;7702;51.046;5.184;2023-11-19T00:31:25;13.50;99.90
15203;DHT22;7702;51.046;5.184;2023-11-19T00:33:53;13.60;99.90
15203;DHT22;7702;51.046;5.184;2023-11-19T00:36:19;13.60;99.90
15203;DHT22;7702;51.046;5.184;2023-11-19T00:38:45;13.60;99.90
15203;DHT22;7702;51.046;5.184;2023-11-19T00:41:10;13.60;99.90
15203;DHT22;7702;51.046;5.184;2023-11-19T00:43:36;13.60;99.90
15203;DHT22;7702;51.046;5.184;2023-11-19T00:46:02;13.60;99.90
15203;DHT22;7702;51.046;5.184;2023-11-19T00:48:28;13.60;99.90
15203;DHT22;7702;51.046;5.184;2023-11-19T00:50:54;13.60;99.90
15203;DHT22;7702;51.046;5.184;2023-11-19T00:53:20;13.50;99.90
15203;DHT22;7702;51.046;5.184;2023-11-19T00:55:45;13.60;99.90
15203;DHT22;7702;51.046;5.184;2023-11-19T00:58:11;13.60;99.90
15203;DHT22;7702;51.046;5.184;2023-11-19T01:00:36;13.50;99.90
15203;DHT22;7702;51.046;5.184;2023-11-19T01:03:02;13.50;99.90
15203;DHT22;7702;51.046;5.184;2023-11-19T01:05:28;13.50;99.90
15203;DHT22;7702;51.046;5.184;2023-11-19T01:07:54;13.50;99.90
15203;DHT22;7702;51.046;5.184;2023-11-19T01:10:20;13.50;99.90
15203;DHT22;7702;51.046;5.184;2023-11-19T01:12:46;13.50;99.90
15203;DHT22;7702;51.046;5.184;2023-11-19T01:15:12;13.50;99.90
15203;DHT22;7702;51.046;5.184;2023-11-19T01:17:38;13.60;99.90
15203;DHT22;7702;51.046;5.184;2023-11-19T01:20:05;13.60;99.90
15203;DHT22;7702;51.046;5.184;2023-11-19T01:22:32;13.60;99.90
15203;DHT22;7702;51.046;5.184;2023-11-19T01:24:58;13.60;99.90
15203;DHT22;7702;51.046;5.184;2023-11-19T01:27:26;13.60;99.90
15203;DHT22;7702;51.046;5.184;2023-11-19T01:29:52;13.60;99.90
15203;DHT22;7702;51.046;5.184;2023-11-19T01:32:17;13.60;99.90
15203;DHT22;7702;51.046;5.184;2023-11-19T01:34:43;13.60;99.90
15203;DHT22;7702;51.046;5.184;2023-11-19T01:37:09;13.60;99.90
15203;DHT22;7702;51.046;5.184;2023-11-19T01:39:35;13.60;99.90
15203;DHT22;7702;51.046;5.184;2023-11-19T01:42:01;13.60;99.90
15203;DHT22;7702;51.046;5.184;2023-11-19T01:44:27;13.60;99.90
15203;DHT22;7702;51.046;5.184;2023-11-19T01:46:53;13.60;99.90
15203;DHT22;7702;51.046;5.184;2023-11-19T01:49:19;13.60;99.90
15203;DHT22;7702;51.046;5.184;2023-11-19T01:51:46;13.70;99.90
15203;DHT22;7702;51.046;5.184;2023-11-19T01:54:13;13.70;99.90
15203;DHT22;7702;51.046;5.184;2023-11-19T01:56:41;13.60;99.90
15203;DHT22;7702;51.046;5.184;2023-11-19T01:59:08;13.60;99.90
15203;DHT22;7702;51.046;5.184;2023-11-19T02:01:35;13.60;99.90
15203;DHT22;7702;51.046;5.184;2023-11-19T02:04:05;13.60;99.90
15203;DHT22;7702;51.046;5.184;2023-11-19T02:06:33;13.60;99.90
15203;DHT22;7702;51.046;5.184;2023-11-19T02:09:00;13.60;99.90
15203;DHT22;7702;51.046;5.184;2023-11-19T02:11:26;13.60;99.90
15203;DHT22;7702;51.046;5.184;2023-11-19T02:13:55;13.70;99.90
15203;DHT22;7702;51.046;5.184;2023-11-19T02:16:21;13.60;99.90
15203;DHT22;7702;51.046;5.184;2023-11-19T02:18:47;13.60;99.90
15203;DHT22;7702;51.046;5.184;2023-11-19T02:21:14;13.70;99.90
15203;DHT22;7702;51.046;5.184;2023-11-19T02:23:40;13.70;99.90
15203;DHT22;7702;51.046;5.184;2023-11-19T02:26:14;13.60;99.90
15203;DHT22;7702;51.046;5.184;2023-11-19T02:28:42;13.60;99.90
15203;DHT22;7702;51.046;5.184;2023-11-19T02:31:09;13.60;99.90
15203;DHT22;7702;51.046;5.184;2023-11-19T02:33:36;13.60;99.90
15203;DHT22;7702;51.046;5.184;2023-11-19T02:36:06;13.50;99.90
15203;DHT22;7702;51.046;5.184;2023-11-19T02:38:35;13.50;99.90
15203;DHT22;7702;51.046;5.184;2023-11-19T02:41:06;13.50;99.90
15203;DHT22;7702;51.046;5.184;2023-11-19T02:43:34;13.50;99.90
15203;DHT22;7702;51.046;5.184;2023-11-19T02:46:04;13.40;99.90
15203;DHT22;7702;51.046;5.184;2023-11-19T02:48:37;13.30;99.90
15203;DHT22;7702;51.046;5.184;2023-11-19T02:51:03;13.30;99.90
15203;DHT22;7702;51.046;5.184;2023-11-19T02:53:30;13.40;99.90
15203;DHT22;7702;51.046;5.184;2023-11-19T02:55:55;13.40;99.90
15203;DHT22;7702;51.046;5.184;2023-11-19T02:58:43;13.40;99.90
15203;DHT22;7702;51.046;5.184;2023-11-19T03:01:10;13.30;99.90
15203;DHT22;7702;51.046;5.184;2023-11-19T03:03:44;13.30;99.90
15203;DHT22;7702;51.046;5.184;2023-11-19T03:06:14;13.20;99.90
15203;DHT22;7702;51.046;5.184;2023-11-19T03:08:40;13.20;99.90
15203;DHT22;7702;51.046;5.184;2023-11-19T03:11:06;13.10;99.90
15203;DHT22;7702;51.046;5.184;2023-11-19T03:13:32;13.10;99.90
15203;DHT22;7702;51.046;5.184;2023-11-19T03:15:58;13.10;99.90
15203;DHT22;7702;51.046;5.184;2023-11-19T03:18:23;13.10;99.90
15203;DHT22;7702;51.046;5.184;2023-11-19T03:20:49;13.20;99.90
15203;DHT22;7702;51.046;5.184;2023-11-19T03:23:15;13.20;99.90
15203;DHT22;7702;51.046;5.184;2023-11-19T03:25:41;13.20;99.90
15203;DHT22;7702;51.046;5.184;2023-11-19T03:28:06;13.30;99.90
15203;DHT22;7702;51.046;5.184;2023-11-19T03:30:32;13.30;99.90
15203;DHT22;7702;51.046;5.184;2023-11-19T03:32:58;13.40;99.90
15203;DHT22;7702;51.046;5.184;2023-11-19T03:35:25;13.40;99.90
15203;DHT22;7702;51.046;5.184;2023-11-19T03:37:51;13.40;99.90
15203;DHT22;7702;51.046;5.184;2023-11-19T03:40:18;13.30;99.90
15203;DHT22;7702;51.046;5.184;2023-11-19T03:42:45;13.30;99.90
15203;DHT22;7702;51.046;5.184;2023-11-19T03:45:11;13.30;99.90
15203;DHT22;7702;51.046;5.184;2023-11-19T03:47:37;13.20;99.90
15203;DHT22;7702;51.046;5.184;2023-11-19T03:50:04;13.20;99.90
15203;DHT22;7702;51.046;5.184;2023-11-19T03:52:32;13.10;99.90
15203;DHT22;7702;51.046;5.184;2023-11-19T03:54:57;13.10;99.90
15203;DHT22;7702;51.046;5.184;2023-11-19T03:57:23;13.10;99.90
15203;DHT22;7702;51.046;5.184;2023-11-19T03:59:50;13.10;99.90
15203;DHT22;7702;51.046;5.184;2023-11-19T04:02:16;13.00;99.90
15203;DHT22;7702;51.046;5.184;2023-11-19T04:04:42;12.90;99.90
15203;DHT22;7702;51.046;5.184;2023-11-19T04:07:07;12.80;99.90
15203;DHT22;7702;51.046;5.184;2023-11-19T04:09:33;12.80;99.90
15203;DHT22;7702;51.046;5.184;2023-11-19T04:11:59;12.80;99.90
15203;DHT22;7702;51.046;5.184;2023-11-19T04:14:26;12.80;99.90
15203;DHT22;7702;51.046;5.184;2023-11-19T04:16:52;12.80;99.90
15203;DHT22;7702;51.046;5.184;2023-11-19T04:19:18;12.90;99.90
15203;DHT22;7702;51.046;5.184;2023-11-19T04:21:44;12.90;99.90
15203;DHT22;7702;51.046;5.184;2023-11-19T04:24:10;12.80;99.90
15203;DHT22;7702;51.046;5.184;2023-11-19T04:26:46;12.80;99.90
15203;DHT22;7702;51.046;5.184;2023-11-19T04:29:14;12.90;99.90
15203;DHT22;7702;51.046;5.184;2023-11-19T04:31:45;12.90;99.90
15203;DHT22;7702;51.046;5.184;2023-11-19T04:34:11;12.80;99.90
15203;DHT22;7702;51.046;5.184;2023-11-19T04:36:37;12.90;99.90
15203;DHT22;7702;51.046;5.184;2023-11-19T04:39:04;12.80;99.90
15203;DHT22;7702;51.046;5.184;2023-11-19T04:41:35;12.80;99.90
15203;DHT22;7702;51.046;5.184;2023-11-19T04:44:01;12.80;99.90
15203;DHT22;7702;51.046;5.184;2023-11-19T04:46:26;12.80;99.90
15203;DHT22;7702;51.046;5.184;2023-11-19T04:48:52;12.80;99.90
15203;DHT22;7702;51.046;5.184;2023-11-19T04:51:18;12.80;99.90
15203;DHT22;7702;51.046;5.184;2023-11-19T04:53:43;12.80;99.90
15203;DHT22;7702;51.046;5.184;2023-11-19T04:56:10;12.80;99.90
15203;DHT22;7702;51.046;5.184;2023-11-19T04:58:36;12.80;99.90
15203;DHT22;7702;51.046;5.184;2023-11-19T05:01:03;12.80;99.90
15203;DHT22;7702;51.046;5.184;2023-11-19T05:03:29;12.70;99.90
15203;DHT22;7702;51.046;5.184;2023-11-19T05:05:55;12.60;99.90
15203;DHT22;7702;51.046;5.184;2023-11-19T05:08:20;12.60;99.90
15203;DHT22;7702;51.046;5.184;2023-11-19T05:10:46;12.50;99.90
15203;DHT22;7702;51.046;5.184;2023-11-19T05:13:11;12.60;99.90
15203;DHT22;7702;51.046;5.184;2023-11-19T05:15:38;12.50;99.90
15203;DHT22;7702;51.046;5.184;2023-11-19T05:18:03;12.40;99.90
15203;DHT22;7702;51.046;5.184;2023-11-19T05:20:30;12.50;99.90
15203;DHT22;7702;51.046;5.184;2023-11-19T05:22:56;12.40;99.90
15203;DHT22;7702;51.046;5.184;2023-11-19T05:25:22;12.30;99.90
15203;DHT22;7702;51.046;5.184;2023-11-19T05:27:47;12.40;99.90
15203;DHT22;7702;51.046;5.184;2023-11-19T05:30:13;12.40;99.90
15203;DHT22;7702;51.046;5.184;2023-11-19T05:32:39;12.30;99.90
15203;DHT22;7702;51.046;5.184;2023-11-19T05:35:05;12.30;99.90
15203;DHT22;7702;51.046;5.184;2023-11-19T05:37:31;12.40;99.90
15203;DHT22;7702;51.046;5.184;2023-11-19T05:39:56;12.40;99.90
15203;DHT22;7702;51.046;5.184;2023-11-19T05:42:22;12.30;99.90
15203;DHT22;7702;51.046;5.184;2023-11-19T05:44:49;12.30;99.90
15203;DHT22;7702;51.046;5.184;2023-11-19T05:47:14;12.30;99.90
15203;DHT22;7702;51.046;5.184;2023-11-19T05:49:40;12.30;99.90
15203;DHT22;7702;51.046;5.184;2023-11-19T05:52:06;12.20;99.90
15203;DHT22;7702;51.046;5.184;2023-11-19T05:54:33;12.20;99.90
15203;DHT22;7702;51.046;5.184;2023-11-19T05:57:07;12.10;99.90
15203;DHT22;7702;51.046;5.184;2023-11-19T05:59:36;12.20;99.90
15203;DHT22;7702;51.046;5.184;2023-11-19T06:02:02;12.10;99.90
15203;DHT22;7702;51.046;5.184;2023-11-19T06:04:28;12.10;99.90
15203;DHT22;7702;51.046;5.184;2023-11-19T06:06:54;12.20;99.90
15203;DHT22;7702;51.046;5.184;2023-11-19T06:09:23;12.10;99.90
15203;DHT22;7702;51.046;5.184;2023-11-19T06:11:51;12.10;99.90
15203;DHT22;7702;51.046;5.184;2023-11-19T06:14:18;12.10;99.90
15203;DHT22;7702;51.046;5.184;2023-11-19T06:16:44;12.10;99.90
15203;DHT22;7702;51.046;5.184;2023-11-19T06:19:10;12.10;99.90
15203;DHT22;7702;51.046;5.184;2023-11-19T06:21:37;12.10;99.90
15203;DHT22;7702;51.046;5.184;2023-11-19T06:24:02;11.90;99.90
15203;DHT22;7702;51.046;5.184;2023-11-19T06:26:28;11.90;99.90
15203;DHT22;7702;51.046;5.184;2023-11-19T06:28:54;11.90;99.90
15203;DHT22;7702;51.046;5.184;2023-11-19T06:31:20;11.90;99.90
15203;DHT22;7702;51.046;5.184;2023-11-19T06:33:46;11.80;99.90
15203;DHT22;7702;51.046;5.184;2023-11-19T06:36:14;11.80;99.90
15203;DHT22;7702;51.046;5.184;2023-11-19T06:38:42;11.70;99.90
15203;DHT22;7702;51.046;5.184;2023-11-19T06:41:08;11.60;99.90
15203;DHT22;7702;51.046;5.184;2023-11-19T06:43:37;11.80;99.90
15203;DHT22;7702;51.046;5.184;2023-11-19T06:46:03;11.80;99.90
15203;DHT22;7702;51.046;5.184;2023-11-19T06:48:32;11.80;99.90
15203;DHT22;7702;51.046;5.184;2023-11-19T06:50:57;11.80;99.90
15203;DHT22;7702;51.046;5.184;2023-11-19T06:53:23;11.80;99.90
15203;DHT22;7702;51.046;5.184;2023-11-19T06:55:49;11.80;99.90
15203;DHT22;7702;51.046;5.184;2023-11-19T06:58:14;11.80;99.90
15203;DHT22;7702;51.046;5.184;2023-11-19T07:00:40;11.80;99.90
15203;DHT22;7702;51.046;5.184;2023-11-19T07:03:06;11.80;99.90
15203;DHT22;7702;51.046;5.184;2023-11-19T07:05:36;11.70;99.90
15203;DHT22;7702;51.046;5.184;2023-11-19T07:08:03;11.70;99.90
15203;DHT22;7702;51.046;5.184;2023-11-19T07:10:29;11.70;99.90
15203;DHT22;7702;51.046;5.184;2023-11-19T07:12:56;11.60;99.90
15203;DHT22;7702;51.046;5.184;2023-11-19T07:15:21;11.60;99.90
15203;DHT22;7702;51.046;5.184;2023-11-19T07:17:47;11.60;99.90
15203;DHT22;7702;51.046;5.184;2023-11-19T07:20:14;11.50;99.90
15203;DHT22;7702;51.046;5.184;2023-11-19T07:22:45;11.50;99.90
15203;DHT22;7702;51.046;5.184;2023-11-19T07:25:13;11.50;99.90
15203;DHT22;7702;51.046;5.184;2023-11-19T07:27:39;11.50;99.90
15203;DHT22;7702;51.046;5.184;2023-11-19T07:30:06;11.50;99.90
15203;DHT22;7702;51.046;5.184;2023-11-19T07:32:33;11.40;99.90
15203;DHT22;7702;51.046;5.184;2023-11-19T07:34:58;11.50;99.90
15203;DHT22;7702;51.046;5.184;2023-11-19T07:37:25;11.60;99.90
15203;DHT22;7702;51.046;5.184;2023-11-19T07:39:50;11.50;99.90
15203;DHT22;7702;51.046;5.184;2023-11-19T07:42:16;11.50;99.90
15203;DHT22;7702;51.046;5.184;2023-11-19T07:44:43;11.50;99.90
15203;DHT22;7702;51.046;5.184;2023-11-19T07:47:09;11.50;99.90
15203;DHT22;7702;51.046;5.184;2023-11-19T07:49:34;11.60;99.90
15203;DHT22;7702;51.046;5.184;2023-11-19T07:52:01;11.60;99.90
15203;DHT22;7702;51.046;5.184;2023-11-19T07:54:28;11.70;99.90
15203;DHT22;7702;51.046;5.184;2023-11-19T07:56:54;11.60;99.90
15203;DHT22;7702;51.046;5.184;2023-11-19T07:59:20;11.60;99.90
15203;DHT22;7702;51.046;5.184;2023-11-19T08:01:46;11.70;99.90
15203;DHT22;7702;51.046;5.184;2023-11-19T08:04:12;11.70;99.90
15203;DHT22;7702;51.046;5.184;2023-11-19T08:06:37;11.70;99.90
15203;DHT22;7702;51.046;5.184;2023-11-19T08:09:03;11.70;99.90
15203;DHT22;7702;51.046;5.184;2023-11-19T08:11:29;11.80;99.90
15203;DHT22;7702;51.046;5.184;2023-11-19T08:13:55;11.80;99.90
15203;DHT22;7702;51.046;5.184;2023-11-19T08:16:20;11.90;99.90
15203;DHT22;7702;51.046;5.184;2023-11-19T08:18:46;11.90;99.90
15203;DHT22;7702;51.046;5.184;2023-11-19T08:21:12;11.90;99.90
15203;DHT22;7702;51.046;5.184;2023-11-19T08:23:38;12.00;99.90
15203;DHT22;7702;51.046;5.184;2023-11-19T08:26:04;12.10;99.90
15203;DHT22;7702;51.046;5.184;2023-11-19T08:28:30;12.10;99.90
15203;DHT22;7702;51.046;5.184;2023-11-19T08:30:56;12.00;99.90
15203;DHT22;7702;51.046;5.184;2023-11-19T08:33:24;12.00;99.90
15203;DHT22;7702;51.046;5.184;2023-11-19T08:35:49;12.10;99.90
15203;DHT22;7702;51.046;5.184;2023-11-19T08:38:15;12.30;99.90
15203;DHT22;7702;51.046;5.184;2023-11-19T08:40:41;12.40;99.90
15203;DHT22;7702;51.046;5.184;2023-11-19T08:43:07;12.40;99.90
15203;DHT22;7702;51.046;5.184;2023-11-19T08:45:33;12.40;99.90
15203;DHT22;7702;51.046;5.184;2023-11-19T08:47:59;12.40;99.90
15203;DHT22;7702;51.046;5.184;2023-11-19T08:50:24;12.50;99.90
15203;DHT22;7702;51.046;5.184;2023-11-19T08:52:50;12.50;99.90
15203;DHT22;7702;51.046;5.184;2023-11-19T08:55:16;12.50;99.90
15203;DHT22;7702;51.046;5.184;2023-11-19T08:57:42;12.50;99.90
15203;DHT22;7702;51.046;5.184;2023-11-19T09:00:08;12.50;99.90
15203;DHT22;7702;51.046;5.184;2023-11-19T09:02:35;12.50;99.90
15203;DHT22;7702;51.046;5.184;2023-11-19T09:05:02;12.60;99.90
15203;DHT22;7702;51.046;5.184;2023-11-19T09:07:28;12.90;99.90
15203;DHT22;7702;51.046;5.184;2023-11-19T09:09:54;13.10;99.90
15203;DHT22;7702;51.046;5.184;2023-11-19T09:12:20;13.10;99.90
15203;DHT22;7702;51.046;5.184;2023-11-19T09:14:46;13.10;99.90
15203;DHT22;7702;51.046;5.184;2023-11-19T09:17:12;13.10;99.90
15203;DHT22;7702;51.046;5.184;2023-11-19T09:19:38;13.20;99.90
15203;DHT22;7702;51.046;5.184;2023-11-19T09:22:04;13.30;99.90
15203;DHT22;7702;51.046;5.184;2023-11-19T09:24:29;13.30;99.90
15203;DHT22;7702;51.046;5.184;2023-11-19T09:26:55;13.40;99.90
15203;DHT22;7702;51.046;5.184;2023-11-19T09:29:22;13.50;99.90
15203;DHT22;7702;51.046;5.184;2023-11-19T09:31:47;13.60;99.90
15203;DHT22;7702;51.046;5.184;2023-11-19T09:34:13;13.50;99.90
15203;DHT22;7702;51.046;5.184;2023-11-19T09:36:38;13.40;99.90
15203;DHT22;7702;51.046;5.184;2023-11-19T09:39:12;13.30;99.90
15203;DHT22;7702;51.046;5.184;2023-11-19T09:41:43;13.20;99.90
15203;DHT22;7702;51.046;5.184;2023-11-19T09:44:10;13.10;99.90
15203;DHT22;7702;51.046;5.184;2023-11-19T09:46:38;13.00;99.90
15203;DHT22;7702;51.046;5.184;2023-11-19T09:49:05;13.00;99.90
15203;DHT22;7702;51.046;5.184;2023-11-19T09:51:35;12.90;99.90
15203;DHT22;7702;51.046;5.184;2023-11-19T09:54:01;13.00;99.90
15203;DHT22;7702;51.046;5.184;2023-11-19T09:56:29;13.20;99.90
15203;DHT22;7702;51.046;5.184;2023-11-19T09:58:56;13.30;99.90
15203;DHT22;7702;51.046;5.184;2023-11-19T10:01:21;13.40;99.90
15203;DHT22;7702;51.046;5.184;2023-11-19T10:03:48;13.50;99.90
15203;DHT22;7702;51.046;5.184;2023-11-19T10:06:15;13.60;99.90
15203;DHT22;7702;51.046;5.184;2023-11-19T10:08:42;13.60;99.90
15203;DHT22;7702;51.046;5.184;2023-11-19T10:11:09;13.60;99.90
15203;DHT22;7702;51.046;5.184;2023-11-19T10:13:38;13.80;99.90
15203;DHT22;7702;51.046;5.184;2023-11-19T10:16:08;13.80;99.90
15203;DHT22;7702;51.046;5.184;2023-11-19T10:18:34;14.00;99.90
15203;DHT22;7702;51.046;5.184;2023-11-19T10:21:04;14.10;99.90
15203;DHT22;7702;51.046;5.184;2023-11-19T10:23:30;14.20;99.90
15203;DHT22;7702;51.046;5.184;2023-11-19T10:26:03;14.10;99.90
15203;DHT22;7702;51.046;5.184;2023-11-19T10:28:39;14.10;99.90
15203;DHT22;7702;51.046;5.184;2023-11-19T10:31:06;14.00;99.90
15203;DHT22;7702;51.046;5.184;2023-11-19T10:33:32;14.10;99.90
15203;DHT22;7702;51.046;5.184;2023-11-19T10:35:59;14.20;99.90
15203;DHT22;7702;51.046;5.184;2023-11-19T10:38:28;14.20;99.90
15203;DHT22;7702;51.046;5.184;2023-11-19T10:40:54;14.20;99.90
15203;DHT22;7702;51.046;5.184;2023-11-19T10:43:21;13.90;99.90
15203;DHT22;7702;51.046;5.184;2023-11-19T10:45:50;13.70;99.90
15203;DHT22;7702;51.046;5.184;2023-11-19T10:48:15;13.70;99.90
15203;DHT22;7702;51.046;5.184;2023-11-19T10:50:44;13.50;99.90
15203;DHT22;7702;51.046;5.184;2023-11-19T10:53:11;13.50;99.90
15203;DHT22;7702;51.046;5.184;2023-11-19T10:55:41;13.50;99.90
15203;DHT22;7702;51.046;5.184;2023-11-19T10:58:09;13.50;99.90
15203;DHT22;7702;51.046;5.184;2023-11-19T11:00:57;13.50;99.90
15203;DHT22;7702;51.046;5.184;2023-11-19T11:03:26;13.60;99.90
15203;DHT22;7702;51.046;5.184;2023-11-19T11:05:55;13.80;99.90
15203;DHT22;7702;51.046;5.184;2023-11-19T11:08:21;13.80;99.90
15203;DHT22;7702;51.046;5.184;2023-11-19T11:10:55;13.70;99.90
15203;DHT22;7702;51.046;5.184;2023-11-19T11:13:24;13.60;99.90
15203;DHT22;7702;51.046;5.184;2023-11-19T11:15:50;13.60;99.90
15203;DHT22;7702;51.046;5.184;2023-11-19T11:18:17;13.50;99.90
15203;DHT22;7702;51.046;5.184;2023-11-19T11:20:45;13.60;99.90
15203;DHT22;7702;51.046;5.184;2023-11-19T11:31:43;13.40;99.90
15203;DHT22;7702;51.046;5.184;2023-11-19T11:34:27;13.40;99.90
15203;DHT22;7702;51.046;5.184;2023-11-19T11:39:34;13.30;99.90
15203;DHT22;7702;51.046;5.184;2023-11-19T11:55:37;13.50;99.90
15203;DHT22;7702;51.046;5.184;2023-11-19T11:58:05;13.60;99.90
15203;DHT22;7702;51.046;5.184;2023-11-19T12:00:38;13.70;99.90
15203;DHT22;7702;51.046;5.184;2023-11-19T12:03:05;13.70;99.90
15203;DHT22;7702;51.046;5.184;2023-11-19T12:05:41;13.80;99.90
15203;DHT22;7702;51.046;5.184;2023-11-19T12:08:11;13.80;99.90
15203;DHT22;7702;51.046;5.184;2023-11-19T12:10:51;13.80;99.90
15203;DHT22;7702;51.046;5.184;2023-11-19T12:13:21;13.70;99.90
15203;DHT22;7702;51.046;5.184;2023-11-19T12:16:09;13.80;99.90
15203;DHT22;7702;51.046;5.184;2023-11-19T12:18:39;13.80;99.90
15203;DHT22;7702;51.046;5.184;2023-11-19T12:21:05;13.90;99.90
15203;DHT22;7702;51.046;5.184;2023-11-19T12:23:31;13.90;99.90
15203;DHT22;7702;51.046;5.184;2023-11-19T12:25:58;13.90;99.90
15203;DHT22;7702;51.046;5.184;2023-11-19T12:28:24;14.10;99.90
15203;DHT22;7702;51.046;5.184;2023-11-19T12:30:52;14.10;99.90
15203;DHT22;7702;51.046;5.184;2023-11-19T12:33:19;14.00;99.90
15203;DHT22;7702;51.046;5.184;2023-11-19T12:35:47;14.10;99.90
15203;DHT22;7702;51.046;5.184;2023-11-19T12:38:24;14.00;99.90
15203;DHT22;7702;51.046;5.184;2023-11-19T12:43:30;13.80;99.90
15203;DHT22;7702;51.046;5.184;2023-11-19T12:45:56;13.80;99.90
15203;DHT22;7702;51.046;5.184;2023-11-19T12:48:22;13.70;99.90
15203;DHT22;7702;51.046;5.184;2023-11-19T12:50:58;13.50;99.90
15203;DHT22;7702;51.046;5.184;2023-11-19T12:53:26;13.30;99.90
15203;DHT22;7702;51.046;5.184;2023-11-19T12:55:52;13.10;99.90
15203;DHT22;7702;51.046;5.184;2023-11-19T12:58:31;13.10;99.90
15203;DHT22;7702;51.046;5.184;2023-11-19T13:01:07;13.00;99.90
15203;DHT22;7702;51.046;5.184;2023-11-19T13:03:36;13.00;99.90
15203;DHT22;7702;51.046;5.184;2023-11-19T13:06:05;12.90;99.90
15203;DHT22;7702;51.046;5.184;2023-11-19T13:08:41;12.90;99.90
15203;DHT22;7702;51.046;5.184;2023-11-19T13:11:07;12.80;99.90
15203;DHT22;7702;51.046;5.184;2023-11-19T13:13:56;12.80;99.90
15203;DHT22;7702;51.046;5.184;2023-11-19T13:16:22;12.80;99.90
15203;DHT22;7702;51.046;5.184;2023-11-19T13:18:48;12.90;99.90
15203;DHT22;7702;51.046;5.184;2023-11-19T13:21:14;13.00;99.90
15203;DHT22;7702;51.046;5.184;2023-11-19T13:23:40;13.10;99.90
15203;DHT22;7702;51.046;5.184;2023-11-19T13:26:06;13.20;99.90
15203;DHT22;7702;51.046;5.184;2023-11-19T13:28:31;13.10;99.90
15203;DHT22;7702;51.046;5.184;2023-11-19T13:30:57;13.20;99.90
15203;DHT22;7702;51.046;5.184;2023-11-19T13:33:23;13.10;99.90
15203;DHT22;7702;51.046;5.184;2023-11-19T13:35:49;13.20;99.90
15203;DHT22;7702;51.046;5.184;2023-11-19T13:38:14;13.30;99.90
15203;DHT22;7702;51.046;5.184;2023-11-19T13:40:40;13.30;99.90
15203;DHT22;7702;51.046;5.184;2023-11-19T13:43:06;13.30;99.90
15203;DHT22;7702;51.046;5.184;2023-11-19T13:45:32;13.30;99.90
15203;DHT22;7702;51.046;5.184;2023-11-19T13:47:58;13.30;99.90
15203;DHT22;7702;51.046;5.184;2023-11-19T13:50:24;13.20;99.90
15203;DHT22;7702;51.046;5.184;2023-11-19T13:52:51;13.20;99.90
15203;DHT22;7702;51.046;5.184;2023-11-19T13:55:16;13.10;99.90
15203;DHT22;7702;51.046;5.184;2023-11-19T13:57:43;13.00;99.90
15203;DHT22;7702;51.046;5.184;2023-11-19T14:00:11;12.90;99.90
15203;DHT22;7702;51.046;5.184;2023-11-19T14:02:45;12.90;99.90
15203;DHT22;7702;51.046;5.184;2023-11-19T14:05:12;12.90;99.90
15203;DHT22;7702;51.046;5.184;2023-11-19T14:07:39;12.90;99.90
15203;DHT22;7702;51.046;5.184;2023-11-19T14:10:06;12.80;99.90
15203;DHT22;7702;51.046;5.184;2023-11-19T14:12:32;12.80;99.90
15203;DHT22;7702;51.046;5.184;2023-11-19T14:14:58;12.80;99.90
15203;DHT22;7702;51.046;5.184;2023-11-19T14:17:25;12.70;99.90
15203;DHT22;7702;51.046;5.184;2023-11-19T14:19:51;12.70;99.90
15203;DHT22;7702;51.046;5.184;2023-11-19T14:22:17;12.80;99.90
15203;DHT22;7702;51.046;5.184;2023-11-19T14:24:42;12.90;99.90
15203;DHT22;7702;51.046;5.184;2023-11-19T14:27:11;13.00;99.90
15203;DHT22;7702;51.046;5.184;2023-11-19T14:29:37;13.00;99.90
15203;DHT22;7702;51.046;5.184;2023-11-19T14:32:03;13.10;99.90
15203;DHT22;7702;51.046;5.184;2023-11-19T14:34:32;13.10;99.90
15203;DHT22;7702;51.046;5.184;2023-11-19T14:36:58;13.00;99.90
15203;DHT22;7702;51.046;5.184;2023-11-19T14:39:24;12.90;99.90
15203;DHT22;7702;51.046;5.184;2023-11-19T14:41:50;12.80;99.90
15203;DHT22;7702;51.046;5.184;2023-11-19T14:44:17;12.80;99.90
15203;DHT22;7702;51.046;5.184;2023-11-19T14:46:43;12.80;99.90
15203;DHT22;7702;51.046;5.184;2023-11-19T14:49:09;12.80;99.90
15203;DHT22;7702;51.046;5.184;2023-11-19T14:51:38;12.80;99.90
15203;DHT22;7702;51.046;5.184;2023-11-19T14:54:07;12.80;99.90
15203;DHT22;7702;51.046;5.184;2023-11-19T14:56:32;12.80;99.90
15203;DHT22;7702;51.046;5.184;2023-11-19T14:58:58;12.80;99.90
15203;DHT22;7702;51.046;5.184;2023-11-19T15:01:24;12.80;99.90
15203;DHT22;7702;51.046;5.184;2023-11-19T15:03:50;12.80;99.90
15203;DHT22;7702;51.046;5.184;2023-11-19T15:06:16;12.80;99.90
15203;DHT22;7702;51.046;5.184;2023-11-19T15:08:42;12.70;99.90
15203;DHT22;7702;51.046;5.184;2023-11-19T15:11:08;12.70;99.90
15203;DHT22;7702;51.046;5.184;2023-11-19T15:13:35;12.70;99.90
15203;DHT22;7702;51.046;5.184;2023-11-19T15:16:03;12.70;99.90
15203;DHT22;7702;51.046;5.184;2023-11-19T15:18:31;12.60;99.90
15203;DHT22;7702;51.046;5.184;2023-11-19T15:20:57;12.60;99.90
15203;DHT22;7702;51.046;5.184;2023-11-19T15:23:22;12.50;99.90
15203;DHT22;7702;51.046;5.184;2023-11-19T15:25:48;12.50;99.90
15203;DHT22;7702;51.046;5.184;2023-11-19T15:28:14;12.50;99.90
15203;DHT22;7702;51.046;5.184;2023-11-19T15:30:40;12.50;99.90
15203;DHT22;7702;51.046;5.184;2023-11-19T15:33:06;12.50;99.90
15203;DHT22;7702;51.046;5.184;2023-11-19T15:35:34;12.50;99.90
15203;DHT22;7702;51.046;5.184;2023-11-19T15:38:00;12.50;99.90
15203;DHT22;7702;51.046;5.184;2023-11-19T15:40:26;12.50;99.90
15203;DHT22;7702;51.046;5.184;2023-11-19T15:42:52;12.50;99.90
15203;DHT22;7702;51.046;5.184;2023-11-19T15:45:20;12.50;99.90
15203;DHT22;7702;51.046;5.184;2023-11-19T15:47:46;12.60;99.90
15203;DHT22;7702;51.046;5.184;2023-11-19T15:50:12;12.60;99.90
15203;DHT22;7702;51.046;5.184;2023-11-19T15:52:38;12.70;99.90
15203;DHT22;7702;51.046;5.184;2023-11-19T15:55:04;12.70;99.90
15203;DHT22;7702;51.046;5.184;2023-11-19T15:57:30;12.60;99.90
15203;DHT22;7702;51.046;5.184;2023-11-19T15:59:56;12.70;99.90
15203;DHT22;7702;51.046;5.184;2023-11-19T16:02:22;12.70;99.90
15203;DHT22;7702;51.046;5.184;2023-11-19T16:04:48;12.70;99.90
15203;DHT22;7702;51.046;5.184;2023-11-19T16:07:14;12.70;99.90
15203;DHT22;7702;51.046;5.184;2023-11-19T16:09:40;12.70;99.90
15203;DHT22;7702;51.046;5.184;2023-11-19T16:12:07;12.70;99.90